• Join FlightAware (Why Join?)
  • Login
  • US Flag 
12:02PM EDT


 

Airport Tracker/Info


-or-


 

Live Flight TrackerFlight Track Log ✈ SWA808 ✈ 20-Apr-2013 ✈ KBOS - KBWI

Flight Track Log - Related Links

Times and Time Zones

All times are in EDT time to prevent confusion due to time zone crossing. See the SWA808 flight status page for this flight to view local times or setup timezone preferences in your user account.

Time Position Orientation Groundspeed Altitude Reporting Facility
EDT Latitude Longitude Course Direction KTS MPH feet Rate Location/Type
05:32PM 42.3667 -71.0167 286° West 148 170 800  Level KA90
05:35PM 42.3994 -71.1722 286° West 229 264 8,700 3,540 Climbing Boston Center
05:36PM 42.3967 -71.2789 268° West 245 282 12,500 3,480 Climbing Boston Center
05:37PM 42.3914 -71.3803 266° West 290 334 15,700 3,120 Climbing Boston Center
05:38PM 42.3650 -71.4819 251° West 312 359 18,800 3,300 Climbing Boston Center
05:39PM 42.3267 -71.6172 249° West 329 379 22,400 3,360 Climbing Boston Center
05:40PM 42.2878 -71.7217 243° Southwest 329 379 25,600 1,800 Climbing Boston Center
05:41PM 42.2508 -71.8286 245° Southwest 324 373 26,000 180 Climbing Boston Center
05:42PM 42.2139 -71.9328 244° Southwest 319 367 26,000  Level Boston Center
05:43PM 42.1767 -72.0394 245° Southwest 319 367 26,000  Level Boston Center
05:44PM 42.1375 -72.1433 243° Southwest 319 367 26,000  Level Boston Center
05:45PM 42.1000 -72.2497 245° Southwest 319 367 26,000  Level Boston Center
05:46PM 42.0503 -72.3731 242° Southwest 319 367 26,000  Level Boston Center
05:47PM 41.9939 -72.4653 231° Southwest 319 367 26,000  Level Boston Center
05:48PM 41.9397 -72.5572 232° Southwest 325 374 26,000 -420 Level Boston Center
05:49PM 41.8814 -72.6492 230° Southwest 325 374 25,200 -840 Descending Boston Center
05:50PM 41.8353 -72.7300 233° Southwest 313 360 24,400 -600 Descending Boston Center
05:51PM 41.7725 -72.8353 231° Southwest 326 375 24,000 -240 Descending Boston Center
05:52PM 41.7158 -72.9239 229° Southwest 326 375 24,000  Level Boston Center
05:53PM 41.6592 -73.0153 230° Southwest 326 375 24,000  Level Boston Center
05:54PM 41.6150 -73.0897 232° Southwest 326 375 24,000  Level Boston Center
05:55PM 41.5558 -73.1892 232° Southwest 326 375 24,000  Level Boston Center
05:56PM 41.4947 -73.2881 230° Southwest 315 362 24,000  Level Boston Center
05:57PM 41.4378 -73.3761 229° Southwest 315 362 24,000  Level Boston Center
05:58PM 41.3828 -73.4692 232° Southwest 320 368 24,000  Level Boston Center
05:59PM 41.3006 -73.5992 230° Southwest 311 358 24,000  Level New York Center
06:00PM 41.2422 -73.6933 231° Southwest 316 364 24,000  Level New York Center
06:01PM 41.1856 -73.7844 230° Southwest 328 377 24,000  Level New York Center
06:03PM 41.1250 -73.8781 229° Southwest 328 377 24,000  Level New York Center
06:04PM 41.0661 -73.9717 230° Southwest 328 377 24,000  Level New York Center
06:04PM 41.0094 -74.0625 230° Southwest 328 377 24,000  Level New York Center
06:05PM 40.9528 -74.1558 231° Southwest 328 377 24,000  Level New York Center
06:06PM 40.8919 -74.2433 227° Southwest 328 377 24,000  Level New York Center
06:07PM 40.8328 -74.3364 230° Southwest 323 372 24,000  Level New York Center
06:08PM 40.7758 -74.4267 230° Southwest 323 372 24,000  Level New York Center
06:09PM 40.7186 -74.5222 232° Southwest 323 372 24,000 -420 Level New York Center
06:10PM 40.6739 -74.6236 240° Southwest 329 379 23,200 -900 Descending New York Center
06:11PM 40.6306 -74.7306 242° Southwest 329 379 22,200 -1,020 Descending New York Center
06:12PM 40.5875 -74.8347 241° Southwest 329 379 21,200 -1,080 Descending New York Center
06:13PM 40.5422 -74.9386 240° Southwest 329 379 20,100 -1,140 Descending New York Center
06:14PM 40.4661 -75.0267 221° Southwest 324 373 19,000 -900 Descending New York Center
06:15PM 40.3986 -75.1042 221° Southwest 324 373 18,300 -540 Descending New York Center
06:17PM 40.3333 -75.1819 222° Southwest 324 373 18,000 -180 Descending New York Center
06:18PM 40.2744 -75.2517 222° Southwest 324 373 18,000  Level New York Center
06:18PM 40.1981 -75.3417 222° Southwest 335 386 18,000  Level New York Center
06:19PM 40.1344 -75.4189 223° Southwest 330 380 18,000  Level New York Center
06:20PM 40.0689 -75.4958 222° Southwest 325 374 18,000  Level New York Center
06:22PM 39.9992 -75.5725 220° Southwest 325 374 18,000 -360 Level New York Center
06:22PM 39.9494 -75.6667 235° Southwest 325 374 17,300 -840 Descending New York Center
06:24PM 39.9078 -75.7664 241° Southwest 320 368 16,400 -1,020 Descending New York Center
06:25PM 39.8333 -75.9333 240° Southwest 312 359 14,700 -1,020 Descending Potomac TRACON
06:26PM 39.8000 -76.0333 247° West 299 344 13,700 -960 Descending Potomac TRACON
06:27PM 39.7667 -76.1000 237° Southwest 256 295 12,900 -900 Descending Potomac TRACON
06:28PM 39.7333 -76.1833 243° Southwest 251 289 12,100 -600 Descending Potomac TRACON
06:29PM 39.7000 -76.2667 243° Southwest 260 299 11,700 -1,020 Descending Potomac TRACON
06:30PM 39.6333 -76.3000 201° Southwest 271 312 10,100 -1,560 Descending Potomac TRACON
06:31PM 39.5500 -76.3500 205° Southwest 274 315 8,500 -1,440 Descending Potomac TRACON
06:32PM 39.4833 -76.3833 201° Southwest 274 315 7,100 -1,500 Descending Potomac TRACON
06:33PM 39.4000 -76.4000 189° South 277 319 5,600 -1,260 Descending Potomac TRACON
06:34PM 39.3333 -76.4000 180° South 270 311 4,600 -840 Descending Potomac TRACON
06:35PM 39.2500 -76.4167 189° South 265 305 4,000 -600 Descending Potomac TRACON
06:36PM 39.1833 -76.4333 191° South 259 298 3,400 -540 Descending Potomac TRACON
06:37PM 39.1333 -76.5000 226° Southwest 230 265 3,000 -540 Descending Potomac TRACON
06:38PM 39.1167 -76.5500 247° West 166 191 2,300 -720 Descending Potomac TRACON
06:39PM 39.1167 -76.6000 270° West 149 171 1,600 -780 Descending Potomac TRACON
06:40PM 39.1333 -76.6333 303° West 128 147 900 -720 Descending Potomac TRACON
06:42PM 39.1667 -76.6667 270° West  Level FlightAware Approximate
06:49PM 39.1754 -76.6683 270° West  Level Estimated
06:50PM 39.1754 -76.6683 270° West  Level Estimated